sensor_id;sensor_type;location;lat;lon;timestamp;P1;durP1;ratioP1;P2;durP2;ratioP2
42948;SDS011;28587;46.794;23.594;2022-11-18T00:02:24;11.32;;;9.57;;
42948;SDS011;28587;46.794;23.594;2022-11-18T00:07:25;12.98;;;9.00;;
42948;SDS011;28587;46.794;23.594;2022-11-18T00:12:26;11.52;;;8.77;;
42948;SDS011;28587;46.794;23.594;2022-11-18T00:17:45;11.45;;;8.35;;
42948;SDS011;28587;46.794;23.594;2022-11-18T00:22:46;12.07;;;9.27;;
42948;SDS011;28587;46.794;23.594;2022-11-18T00:27:46;9.25;;;7.85;;
42948;SDS011;28587;46.794;23.594;2022-11-18T00:32:48;15.38;;;9.38;;
42948;SDS011;28587;46.794;23.594;2022-11-18T00:37:49;9.45;;;8.10;;
42948;SDS011;28587;46.794;23.594;2022-11-18T00:42:50;10.70;;;8.57;;
42948;SDS011;28587;46.794;23.594;2022-11-18T00:47:51;9.82;;;8.18;;
42948;SDS011;28587;46.794;23.594;2022-11-18T00:52:51;11.05;;;8.57;;
42948;SDS011;28587;46.794;23.594;2022-11-18T00:57:52;9.88;;;8.25;;
42948;SDS011;28587;46.794;23.594;2022-11-18T01:02:53;9.82;;;7.97;;
42948;SDS011;28587;46.794;23.594;2022-11-18T01:07:54;9.68;;;7.95;;
42948;SDS011;28587;46.794;23.594;2022-11-18T01:12:55;8.68;;;7.22;;
42948;SDS011;28587;46.794;23.594;2022-11-18T01:18:15;9.20;;;7.95;;
42948;SDS011;28587;46.794;23.594;2022-11-18T01:23:18;8.88;;;7.70;;
42948;SDS011;28587;46.794;23.594;2022-11-18T01:28:19;10.68;;;7.80;;
42948;SDS011;28587;46.794;23.594;2022-11-18T01:33:21;9.80;;;7.93;;
42948;SDS011;28587;46.794;23.594;2022-11-18T01:38:21;9.32;;;7.35;;
42948;SDS011;28587;46.794;23.594;2022-11-18T01:43:22;9.20;;;7.45;;
42948;SDS011;28587;46.794;23.594;2022-11-18T01:48:30;8.02;;;6.88;;
42948;SDS011;28587;46.794;23.594;2022-11-18T01:53:37;8.40;;;7.40;;
42948;SDS011;28587;46.794;23.594;2022-11-18T01:58:43;8.88;;;7.28;;
42948;SDS011;28587;46.794;23.594;2022-11-18T02:03:48;7.72;;;6.72;;
42948;SDS011;28587;46.794;23.594;2022-11-18T02:08:50;8.00;;;7.13;;
42948;SDS011;28587;46.794;23.594;2022-11-18T02:13:51;7.97;;;6.88;;
42948;SDS011;28587;46.794;23.594;2022-11-18T02:39:46;8.77;;;6.43;;
42948;SDS011;28587;46.794;23.594;2022-11-18T02:45:00;9.27;;;6.40;;
42948;SDS011;28587;46.794;23.594;2022-11-18T02:50:07;8.18;;;6.25;;
42948;SDS011;28587;46.794;23.594;2022-11-18T02:55:11;7.40;;;5.72;;
42948;SDS011;28587;46.794;23.594;2022-11-18T03:00:14;8.00;;;5.85;;
42948;SDS011;28587;46.794;23.594;2022-11-18T03:05:39;8.35;;;6.13;;
42948;SDS011;28587;46.794;23.594;2022-11-18T03:10:49;7.43;;;6.13;;
42948;SDS011;28587;46.794;23.594;2022-11-18T03:32:19;9.00;;;6.35;;
42948;SDS011;28587;46.794;23.594;2022-11-18T03:37:23;7.30;;;5.57;;
42948;SDS011;28587;46.794;23.594;2022-11-18T03:42:40;8.45;;;5.55;;
42948;SDS011;28587;46.794;23.594;2022-11-18T03:47:46;5.88;;;5.28;;
42948;SDS011;28587;46.794;23.594;2022-11-18T03:52:53;6.20;;;5.60;;
42948;SDS011;28587;46.794;23.594;2022-11-18T03:58:09;5.90;;;5.30;;
42948;SDS011;28587;46.794;23.594;2022-11-18T04:03:18;7.03;;;6.28;;
42948;SDS011;28587;46.794;23.594;2022-11-18T04:08:21;6.07;;;5.47;;
42948;SDS011;28587;46.794;23.594;2022-11-18T04:13:30;7.18;;;5.65;;
42948;SDS011;28587;46.794;23.594;2022-11-18T04:18:34;6.07;;;5.47;;
42948;SDS011;28587;46.794;23.594;2022-11-18T04:23:35;6.03;;;5.40;;
42948;SDS011;28587;46.794;23.594;2022-11-18T04:28:36;5.65;;;5.13;;
42948;SDS011;28587;46.794;23.594;2022-11-18T04:33:37;5.70;;;5.13;;
42948;SDS011;28587;46.794;23.594;2022-11-18T04:38:38;6.07;;;5.53;;
42948;SDS011;28587;46.794;23.594;2022-11-18T04:43:39;6.25;;;5.07;;
42948;SDS011;28587;46.794;23.594;2022-11-18T04:48:41;6.38;;;5.38;;
42948;SDS011;28587;46.794;23.594;2022-11-18T04:53:42;5.97;;;5.38;;
42948;SDS011;28587;46.794;23.594;2022-11-18T04:58:42;6.63;;;5.53;;
42948;SDS011;28587;46.794;23.594;2022-11-18T05:03:43;7.32;;;5.60;;
42948;SDS011;28587;46.794;23.594;2022-11-18T05:08:44;6.25;;;4.97;;
42948;SDS011;28587;46.794;23.594;2022-11-18T05:13:45;5.40;;;4.63;;
42948;SDS011;28587;46.794;23.594;2022-11-18T05:18:46;5.93;;;5.28;;
42948;SDS011;28587;46.794;23.594;2022-11-18T05:23:47;7.20;;;5.30;;
42948;SDS011;28587;46.794;23.594;2022-11-18T05:28:48;7.93;;;4.53;;
42948;SDS011;28587;46.794;23.594;2022-11-18T05:33:49;6.72;;;5.03;;
42948;SDS011;28587;46.794;23.594;2022-11-18T05:38:49;6.72;;;5.65;;
42948;SDS011;28587;46.794;23.594;2022-11-18T05:43:50;5.60;;;5.03;;
42948;SDS011;28587;46.794;23.594;2022-11-18T05:48:51;6.22;;;5.10;;
42948;SDS011;28587;46.794;23.594;2022-11-18T05:53:53;6.63;;;5.22;;
42948;SDS011;28587;46.794;23.594;2022-11-18T05:58:54;7.45;;;5.03;;
42948;SDS011;28587;46.794;23.594;2022-11-18T06:03:55;6.88;;;5.10;;
42948;SDS011;28587;46.794;23.594;2022-11-18T06:09:04;6.00;;;5.25;;
42948;SDS011;28587;46.794;23.594;2022-11-18T06:14:13;6.80;;;5.32;;
42948;SDS011;28587;46.794;23.594;2022-11-18T06:19:17;6.38;;;5.35;;
42948;SDS011;28587;46.794;23.594;2022-11-18T06:24:18;7.63;;;5.47;;
42948;SDS011;28587;46.794;23.594;2022-11-18T06:29:20;12.93;;;5.93;;
42948;SDS011;28587;46.794;23.594;2022-11-18T06:34:21;7.38;;;5.72;;
42948;SDS011;28587;46.794;23.594;2022-11-18T06:39:22;7.18;;;5.95;;
42948;SDS011;28587;46.794;23.594;2022-11-18T06:44:23;7.47;;;6.05;;
42948;SDS011;28587;46.794;23.594;2022-11-18T06:49:25;9.15;;;6.32;;
42948;SDS011;28587;46.794;23.594;2022-11-18T06:54:26;9.25;;;6.80;;
42948;SDS011;28587;46.794;23.594;2022-11-18T06:59:27;8.65;;;7.22;;
42948;SDS011;28587;46.794;23.594;2022-11-18T07:04:28;8.73;;;6.07;;
42948;SDS011;28587;46.794;23.594;2022-11-18T07:09:28;10.65;;;6.45;;
42948;SDS011;28587;46.794;23.594;2022-11-18T07:14:30;8.32;;;6.57;;
42948;SDS011;28587;46.794;23.594;2022-11-18T07:19:31;8.85;;;7.90;;
42948;SDS011;28587;46.794;23.594;2022-11-18T07:24:31;9.40;;;7.25;;
42948;SDS011;28587;46.794;23.594;2022-11-18T07:29:33;10.48;;;7.30;;
42948;SDS011;28587;46.794;23.594;2022-11-18T07:34:34;10.43;;;8.07;;
42948;SDS011;28587;46.794;23.594;2022-11-18T07:39:34;9.73;;;8.10;;
42948;SDS011;28587;46.794;23.594;2022-11-18T07:44:39;10.70;;;8.27;;
42948;SDS011;28587;46.794;23.594;2022-11-18T07:49:52;14.68;;;8.73;;
42948;SDS011;28587;46.794;23.594;2022-11-18T07:54:53;11.30;;;8.45;;
42948;SDS011;28587;46.794;23.594;2022-11-18T07:59:53;10.88;;;8.73;;
42948;SDS011;28587;46.794;23.594;2022-11-18T08:04:54;11.15;;;8.07;;
42948;SDS011;28587;46.794;23.594;2022-11-18T08:09:55;9.88;;;8.73;;
42948;SDS011;28587;46.794;23.594;2022-11-18T08:14:56;10.23;;;8.07;;
42948;SDS011;28587;46.794;23.594;2022-11-18T08:19:57;11.85;;;8.25;;
42948;SDS011;28587;46.794;23.594;2022-11-18T08:24:58;10.55;;;8.50;;
42948;SDS011;28587;46.794;23.594;2022-11-18T08:29:59;9.48;;;7.82;;
42948;SDS011;28587;46.794;23.594;2022-11-18T08:35:00;9.55;;;7.63;;
42948;SDS011;28587;46.794;23.594;2022-11-18T08:40:01;9.57;;;7.88;;
42948;SDS011;28587;46.794;23.594;2022-11-18T08:45:05;10.73;;;8.18;;
42948;SDS011;28587;46.794;23.594;2022-11-18T08:50:08;9.30;;;8.07;;
42948;SDS011;28587;46.794;23.594;2022-11-18T08:55:10;9.13;;;7.60;;
42948;SDS011;28587;46.794;23.594;2022-11-18T09:00:11;10.95;;;7.82;;
42948;SDS011;28587;46.794;23.594;2022-11-18T09:05:12;8.13;;;6.68;;
42948;SDS011;28587;46.794;23.594;2022-11-18T09:10:13;11.25;;;7.20;;
42948;SDS011;28587;46.794;23.594;2022-11-18T09:15:15;8.98;;;7.15;;
42948;SDS011;28587;46.794;23.594;2022-11-18T09:20:16;9.48;;;7.95;;
42948;SDS011;28587;46.794;23.594;2022-11-18T09:25:17;9.43;;;8.25;;
42948;SDS011;28587;46.794;23.594;2022-11-18T09:30:18;9.32;;;7.43;;
42948;SDS011;28587;46.794;23.594;2022-11-18T09:35:19;8.68;;;7.50;;
42948;SDS011;28587;46.794;23.594;2022-11-18T09:40:20;9.75;;;7.60;;
42948;SDS011;28587;46.794;23.594;2022-11-18T09:45:25;8.05;;;7.22;;
42948;SDS011;28587;46.794;23.594;2022-11-18T09:50:30;8.40;;;7.50;;
42948;SDS011;28587;46.794;23.594;2022-11-18T09:55:31;8.13;;;6.68;;
42948;SDS011;28587;46.794;23.594;2022-11-18T10:00:36;8.15;;;7.00;;
42948;SDS011;28587;46.794;23.594;2022-11-18T10:11:13;8.68;;;7.30;;
42948;SDS011;28587;46.794;23.594;2022-11-18T10:16:21;8.77;;;6.68;;
42948;SDS011;28587;46.794;23.594;2022-11-18T10:27:07;11.40;;;7.20;;
42948;SDS011;28587;46.794;23.594;2022-11-18T10:32:11;8.07;;;7.20;;
42948;SDS011;28587;46.794;23.594;2022-11-18T10:37:21;7.95;;;6.72;;
42948;SDS011;28587;46.794;23.594;2022-11-18T10:42:39;7.63;;;6.65;;
42948;SDS011;28587;46.794;23.594;2022-11-18T10:47:41;7.72;;;6.93;;
42948;SDS011;28587;46.794;23.594;2022-11-18T10:52:50;7.45;;;6.60;;
42948;SDS011;28587;46.794;23.594;2022-11-18T10:57:54;9.15;;;6.90;;
42948;SDS011;28587;46.794;23.594;2022-11-18T11:02:57;7.53;;;6.63;;
42948;SDS011;28587;46.794;23.594;2022-11-18T11:08:02;9.25;;;7.20;;
42948;SDS011;28587;46.794;23.594;2022-11-18T11:13:17;10.07;;;6.90;;
42948;SDS011;28587;46.794;23.594;2022-11-18T11:18:26;8.02;;;6.72;;
42948;SDS011;28587;46.794;23.594;2022-11-18T11:23:41;8.57;;;6.30;;
42948;SDS011;28587;46.794;23.594;2022-11-18T11:28:44;7.45;;;6.00;;
42948;SDS011;28587;46.794;23.594;2022-11-18T12:00:13;7.40;;;6.07;;
42948;SDS011;28587;46.794;23.594;2022-11-18T12:05:24;7.45;;;6.20;;
42948;SDS011;28587;46.794;23.594;2022-11-18T12:10:43;11.38;;;5.93;;
42948;SDS011;28587;46.794;23.594;2022-11-18T12:26:46;6.93;;;6.25;;
42948;SDS011;28587;46.794;23.594;2022-11-18T12:31:52;7.90;;;5.85;;
42948;SDS011;28587;46.794;23.594;2022-11-18T12:36:55;7.25;;;5.80;;
42948;SDS011;28587;46.794;23.594;2022-11-18T12:41:57;6.63;;;5.82;;
42948;SDS011;28587;46.794;23.594;2022-11-18T12:57:42;6.95;;;5.93;;
42948;SDS011;28587;46.794;23.594;2022-11-18T13:02:50;6.55;;;5.85;;
42948;SDS011;28587;46.794;23.594;2022-11-18T13:07:53;7.35;;;5.93;;
42948;SDS011;28587;46.794;23.594;2022-11-18T13:18:26;7.53;;;6.03;;
42948;SDS011;28587;46.794;23.594;2022-11-18T13:23:30;6.47;;;5.38;;
42948;SDS011;28587;46.794;23.594;2022-11-18T13:28:58;6.32;;;5.30;;
42948;SDS011;28587;46.794;23.594;2022-11-18T13:34:18;6.55;;;5.38;;
42948;SDS011;28587;46.794;23.594;2022-11-18T13:39:29;6.90;;;5.55;;
42948;SDS011;28587;46.794;23.594;2022-11-18T13:44:32;6.60;;;6.00;;
42948;SDS011;28587;46.794;23.594;2022-11-18T13:49:45;5.47;;;4.93;;
42948;SDS011;28587;46.794;23.594;2022-11-18T13:55:07;5.85;;;5.07;;
42948;SDS011;28587;46.794;23.594;2022-11-18T14:00:19;6.00;;;5.13;;
42948;SDS011;28587;46.794;23.594;2022-11-18T14:05:25;8.30;;;5.80;;
42948;SDS011;28587;46.794;23.594;2022-11-18T14:10:43;5.78;;;4.85;;
42948;SDS011;28587;46.794;23.594;2022-11-18T14:15:44;8.23;;;5.60;;
42948;SDS011;28587;46.794;23.594;2022-11-18T14:20:52;7.75;;;5.28;;
42948;SDS011;28587;46.794;23.594;2022-11-18T14:25:53;7.57;;;5.03;;
42948;SDS011;28587;46.794;23.594;2022-11-18T14:31:00;6.60;;;4.82;;
42948;SDS011;28587;46.794;23.594;2022-11-18T14:36:20;6.43;;;5.25;;
42948;SDS011;28587;46.794;23.594;2022-11-18T14:41:21;6.70;;;4.85;;
42948;SDS011;28587;46.794;23.594;2022-11-18T14:46:41;7.30;;;5.18;;
42948;SDS011;28587;46.794;23.594;2022-11-18T14:51:44;5.57;;;5.07;;
42948;SDS011;28587;46.794;23.594;2022-11-18T14:56:46;5.75;;;5.13;;
42948;SDS011;28587;46.794;23.594;2022-11-18T15:01:49;6.15;;;4.95;;
42948;SDS011;28587;46.794;23.594;2022-11-18T15:06:50;7.82;;;4.72;;
42948;SDS011;28587;46.794;23.594;2022-11-18T15:11:51;6.13;;;5.13;;
42948;SDS011;28587;46.794;23.594;2022-11-18T15:16:51;6.10;;;5.35;;
42948;SDS011;28587;46.794;23.594;2022-11-18T15:21:52;7.00;;;5.45;;
42948;SDS011;28587;46.794;23.594;2022-11-18T15:26:53;7.22;;;5.22;;
42948;SDS011;28587;46.794;23.594;2022-11-18T15:31:54;5.78;;;4.88;;
42948;SDS011;28587;46.794;23.594;2022-11-18T15:36:55;7.00;;;5.25;;
42948;SDS011;28587;46.794;23.594;2022-11-18T15:41:56;6.85;;;4.90;;
42948;SDS011;28587;46.794;23.594;2022-11-18T15:46:57;7.10;;;4.90;;
42948;SDS011;28587;46.794;23.594;2022-11-18T15:51:59;8.30;;;6.10;;
42948;SDS011;28587;46.794;23.594;2022-11-18T15:57:00;6.82;;;4.80;;
42948;SDS011;28587;46.794;23.594;2022-11-18T16:02:00;5.70;;;4.88;;
42948;SDS011;28587;46.794;23.594;2022-11-18T16:07:01;5.90;;;4.93;;
42948;SDS011;28587;46.794;23.594;2022-11-18T16:12:02;6.53;;;5.38;;
42948;SDS011;28587;46.794;23.594;2022-11-18T16:17:22;6.15;;;5.00;;
42948;SDS011;28587;46.794;23.594;2022-11-18T16:22:23;5.82;;;5.03;;
42948;SDS011;28587;46.794;23.594;2022-11-18T16:27:24;5.97;;;4.88;;
42948;SDS011;28587;46.794;23.594;2022-11-18T16:32:25;6.88;;;4.85;;
42948;SDS011;28587;46.794;23.594;2022-11-18T16:37:26;6.32;;;5.28;;
42948;SDS011;28587;46.794;23.594;2022-11-18T16:42:26;5.22;;;4.72;;
42948;SDS011;28587;46.794;23.594;2022-11-18T16:47:29;6.03;;;4.65;;
42948;SDS011;28587;46.794;23.594;2022-11-18T16:52:29;5.93;;;4.80;;
42948;SDS011;28587;46.794;23.594;2022-11-18T16:57:30;6.75;;;4.72;;
42948;SDS011;28587;46.794;23.594;2022-11-18T17:02:31;5.65;;;5.00;;
42948;SDS011;28587;46.794;23.594;2022-11-18T17:07:32;5.63;;;4.53;;
42948;SDS011;28587;46.794;23.594;2022-11-18T17:12:33;8.13;;;5.25;;
42948;SDS011;28587;46.794;23.594;2022-11-18T17:17:34;5.72;;;5.03;;
42948;SDS011;28587;46.794;23.594;2022-11-18T17:22:34;6.05;;;5.15;;
42948;SDS011;28587;46.794;23.594;2022-11-18T17:27:35;6.68;;;4.95;;
42948;SDS011;28587;46.794;23.594;2022-11-18T17:32:36;5.25;;;4.75;;
42948;SDS011;28587;46.794;23.594;2022-11-18T17:37:37;5.68;;;5.03;;
42948;SDS011;28587;46.794;23.594;2022-11-18T17:42:38;6.65;;;4.60;;
42948;SDS011;28587;46.794;23.594;2022-11-18T17:47:39;8.63;;;4.90;;
42948;SDS011;28587;46.794;23.594;2022-11-18T17:52:39;7.45;;;5.80;;
42948;SDS011;28587;46.794;23.594;2022-11-18T17:57:40;6.10;;;5.32;;
42948;SDS011;28587;46.794;23.594;2022-11-18T18:02:41;5.55;;;5.00;;
42948;SDS011;28587;46.794;23.594;2022-11-18T18:07:42;5.72;;;5.15;;
42948;SDS011;28587;46.794;23.594;2022-11-18T18:12:43;7.90;;;6.47;;
42948;SDS011;28587;46.794;23.594;2022-11-18T18:18:02;7.25;;;6.55;;
42948;SDS011;28587;46.794;23.594;2022-11-18T18:23:03;7.82;;;5.93;;
42948;SDS011;28587;46.794;23.594;2022-11-18T18:28:04;7.47;;;6.07;;
42948;SDS011;28587;46.794;23.594;2022-11-18T18:33:05;7.57;;;6.10;;
42948;SDS011;28587;46.794;23.594;2022-11-18T18:38:06;6.28;;;5.68;;
42948;SDS011;28587;46.794;23.594;2022-11-18T18:43:07;7.38;;;5.63;;
42948;SDS011;28587;46.794;23.594;2022-11-18T18:48:08;5.63;;;5.13;;
42948;SDS011;28587;46.794;23.594;2022-11-18T18:53:09;5.60;;;5.10;;
42948;SDS011;28587;46.794;23.594;2022-11-18T18:58:10;6.90;;;5.18;;
42948;SDS011;28587;46.794;23.594;2022-11-18T19:03:11;7.22;;;5.40;;
42948;SDS011;28587;46.794;23.594;2022-11-18T19:08:12;5.93;;;5.22;;
42948;SDS011;28587;46.794;23.594;2022-11-18T19:13:13;5.85;;;4.82;;
42948;SDS011;28587;46.794;23.594;2022-11-18T19:18:14;6.93;;;5.57;;
42948;SDS011;28587;46.794;23.594;2022-11-18T19:23:14;7.03;;;5.10;;
42948;SDS011;28587;46.794;23.594;2022-11-18T19:28:17;5.93;;;5.35;;
42948;SDS011;28587;46.794;23.594;2022-11-18T19:33:18;6.47;;;5.28;;
42948;SDS011;28587;46.794;23.594;2022-11-18T19:38:18;6.25;;;5.38;;
42948;SDS011;28587;46.794;23.594;2022-11-18T19:43:19;7.00;;;5.32;;
42948;SDS011;28587;46.794;23.594;2022-11-18T19:48:20;6.43;;;5.60;;
42948;SDS011;28587;46.794;23.594;2022-11-18T19:53:21;6.28;;;4.88;;
42948;SDS011;28587;46.794;23.594;2022-11-18T19:58:32;5.53;;;4.70;;
42948;SDS011;28587;46.794;23.594;2022-11-18T20:03:34;6.38;;;5.13;;
42948;SDS011;28587;46.794;23.594;2022-11-18T20:08:35;6.78;;;5.18;;
42948;SDS011;28587;46.794;23.594;2022-11-18T20:13:37;5.65;;;5.15;;
42948;SDS011;28587;46.794;23.594;2022-11-18T20:18:39;8.45;;;5.28;;
42948;SDS011;28587;46.794;23.594;2022-11-18T20:23:41;7.00;;;4.50;;
42948;SDS011;28587;46.794;23.594;2022-11-18T20:28:43;6.32;;;4.80;;
42948;SDS011;28587;46.794;23.594;2022-11-18T20:33:46;9.15;;;4.45;;
42948;SDS011;28587;46.794;23.594;2022-11-18T20:38:55;5.85;;;4.88;;
42948;SDS011;28587;46.794;23.594;2022-11-18T20:43:57;5.32;;;4.68;;
42948;SDS011;28587;46.794;23.594;2022-11-18T20:48:58;7.10;;;4.95;;
42948;SDS011;28587;46.794;23.594;2022-11-18T20:54:00;8.45;;;5.25;;
42948;SDS011;28587;46.794;23.594;2022-11-18T20:59:07;6.40;;;4.63;;
42948;SDS011;28587;46.794;23.594;2022-11-18T21:04:08;5.85;;;4.97;;
42948;SDS011;28587;46.794;23.594;2022-11-18T21:09:10;5.25;;;4.60;;
42948;SDS011;28587;46.794;23.594;2022-11-18T21:14:11;6.43;;;4.75;;
42948;SDS011;28587;46.794;23.594;2022-11-18T21:19:20;6.10;;;5.15;;
42948;SDS011;28587;46.794;23.594;2022-11-18T21:24:22;5.55;;;4.40;;
42948;SDS011;28587;46.794;23.594;2022-11-18T21:29:28;6.18;;;5.07;;
42948;SDS011;28587;46.794;23.594;2022-11-18T21:34:30;6.50;;;4.90;;
42948;SDS011;28587;46.794;23.594;2022-11-18T21:39:31;5.75;;;5.07;;
42948;SDS011;28587;46.794;23.594;2022-11-18T21:44:32;6.90;;;5.25;;
42948;SDS011;28587;46.794;23.594;2022-11-18T21:49:33;5.53;;;4.80;;
42948;SDS011;28587;46.794;23.594;2022-11-18T21:54:33;6.75;;;5.38;;
42948;SDS011;28587;46.794;23.594;2022-11-18T21:59:35;6.22;;;5.32;;
42948;SDS011;28587;46.794;23.594;2022-11-18T22:04:36;5.53;;;4.93;;
42948;SDS011;28587;46.794;23.594;2022-11-18T22:09:52;6.05;;;4.75;;
42948;SDS011;28587;46.794;23.594;2022-11-18T22:14:54;7.07;;;5.38;;
42948;SDS011;28587;46.794;23.594;2022-11-18T22:19:55;6.05;;;5.45;;
42948;SDS011;28587;46.794;23.594;2022-11-18T22:24:56;5.80;;;5.28;;
42948;SDS011;28587;46.794;23.594;2022-11-18T22:29:57;6.07;;;5.38;;
42948;SDS011;28587;46.794;23.594;2022-11-18T22:34:58;6.38;;;5.70;;
42948;SDS011;28587;46.794;23.594;2022-11-18T22:39:58;5.78;;;5.13;;
42948;SDS011;28587;46.794;23.594;2022-11-18T22:44:59;7.63;;;5.50;;
42948;SDS011;28587;46.794;23.594;2022-11-18T22:50:00;6.53;;;5.53;;
42948;SDS011;28587;46.794;23.594;2022-11-18T22:55:01;6.38;;;5.78;;
42948;SDS011;28587;46.794;23.594;2022-11-18T23:00:03;6.65;;;5.95;;
42948;SDS011;28587;46.794;23.594;2022-11-18T23:05:05;6.00;;;5.40;;
42948;SDS011;28587;46.794;23.594;2022-11-18T23:10:06;7.70;;;6.32;;
42948;SDS011;28587;46.794;23.594;2022-11-18T23:15:08;7.03;;;5.28;;
42948;SDS011;28587;46.794;23.594;2022-11-18T23:20:09;6.13;;;5.50;;
42948;SDS011;28587;46.794;23.594;2022-11-18T23:25:10;5.80;;;5.25;;
42948;SDS011;28587;46.794;23.594;2022-11-18T23:30:11;6.07;;;5.40;;
42948;SDS011;28587;46.794;23.594;2022-11-18T23:35:12;6.70;;;5.35;;
42948;SDS011;28587;46.794;23.594;2022-11-18T23:40:13;6.45;;;5.45;;
42948;SDS011;28587;46.794;23.594;2022-11-18T23:45:14;6.80;;;5.78;;
42948;SDS011;28587;46.794;23.594;2022-11-18T23:50:15;6.05;;;5.45;;
42948;SDS011;28587;46.794;23.594;2022-11-18T23:55:16;5.78;;;5.20;;
